createdAt,value
2022-09-28T09:14:10.359Z,1.30
2022-09-28T09:16:48.436Z,1.30
2022-09-28T09:19:47.116Z,1.10
2022-09-28T09:22:47.726Z,1.30
2022-09-28T09:25:26.968Z,1.17
2022-09-28T09:28:24.808Z,1.50
2022-09-28T09:31:22.734Z,1.30
2022-09-28T09:33:53.599Z,2.23
2022-09-28T09:36:49.673Z,1.70
2022-09-28T09:40:00.478Z,2.10
2022-09-28T09:42:49.236Z,1.20
2022-09-28T09:45:55.026Z,1.53
2022-09-28T09:48:43.573Z,1.63
2022-09-28T09:51:26.027Z,1.40
2022-09-28T09:54:00.219Z,1.57
2022-09-28T09:56:44.016Z,1.27
2022-09-28T09:59:26.154Z,1.60
2022-09-28T10:02:32.163Z,1.33
2022-09-28T10:05:27.793Z,1.30
2022-09-28T10:08:08.707Z,1.47
2022-09-28T10:10:42.474Z,1.33
2022-09-28T10:13:13.360Z,1.30
2022-09-28T10:15:47.894Z,1.33
2022-09-28T10:18:34.108Z,1.27
2022-09-28T10:21:23.139Z,1.57
2022-09-28T10:24:03.482Z,1.17
2022-09-28T10:26:54.615Z,1.23
2022-09-28T10:29:25.205Z,1.57
2022-09-28T10:31:54.106Z,1.33
2022-09-28T10:34:28.798Z,1.17
2022-09-28T14:20:13.942Z,1.20
2022-09-28T14:22:41.259Z,1.30
2022-09-28T14:25:24.779Z,0.90
2022-09-28T14:28:26.919Z,1.10
2022-09-28T14:30:59.593Z,0.80
2022-09-28T14:33:32.220Z,0.77
2022-09-28T14:36:08.658Z,0.80
2022-09-28T14:39:04.023Z,0.80
2022-09-28T14:41:41.834Z,0.90
2022-09-28T14:44:16.421Z,1.20
2022-09-28T14:46:48.134Z,1.10
2022-09-28T14:49:19.606Z,1.17
2022-09-28T14:51:58.155Z,1.27
2022-09-28T14:54:27.790Z,1.30
2022-09-28T14:56:57.049Z,1.40
2022-09-28T14:59:30.369Z,1.37
2022-09-28T15:02:06.479Z,1.30
2022-09-28T15:04:39.123Z,1.40
2022-09-28T15:07:06.311Z,1.63
2022-09-28T15:09:35.786Z,1.70
2022-09-28T15:12:18.389Z,1.50
2022-09-28T15:15:24.837Z,1.40
2022-09-28T15:18:02.238Z,1.10
2022-09-28T15:20:40.367Z,1.10
2022-09-28T15:23:45.148Z,0.87
2022-09-28T15:26:27.379Z,0.90
2022-09-28T15:28:54.855Z,1.00
2022-09-28T16:47:34.174Z,2.23
2022-09-28T16:50:04.051Z,2.80
2022-09-28T16:52:49.471Z,1.50
2022-09-28T16:55:36.207Z,2.83
2022-09-28T16:58:04.761Z,2.27
2022-09-28T17:00:32.533Z,1.97
2022-09-28T17:02:59.797Z,2.30
2022-09-28T17:05:26.854Z,2.90
2022-09-28T17:08:02.757Z,3.57
2022-09-28T17:10:56.141Z,3.70
2022-09-28T17:13:36.103Z,3.13
2022-09-28T17:16:11.250Z,2.73
2022-09-28T17:18:39.898Z,2.40
2022-09-28T17:21:11.393Z,3.20
2022-09-28T17:23:38.627Z,2.90
2022-09-28T17:26:06.047Z,3.17
2022-09-28T17:28:35.847Z,2.87
2022-09-28T17:31:04.649Z,3.40
2022-09-28T17:33:31.710Z,3.30
2022-09-28T17:36:05.251Z,4.40
2022-09-28T17:38:32.484Z,4.63
2022-09-28T17:40:59.560Z,3.60
2022-09-28T17:43:26.610Z,6.40
2022-09-28T17:45:53.643Z,4.93
2022-09-28T17:48:23.979Z,5.70
2022-09-28T17:50:51.261Z,3.60
2022-09-28T17:53:18.216Z,3.30
2022-09-28T17:55:45.206Z,5.20
2022-09-28T17:58:16.814Z,3.73
2022-09-28T18:00:45.500Z,4.40
2022-09-28T18:03:15.993Z,3.00
2022-09-28T18:05:45.099Z,3.50
2022-09-28T18:08:15.420Z,3.60
2022-09-28T18:10:42.392Z,3.90
2022-09-28T18:13:09.926Z,4.40
2022-09-28T18:15:37.060Z,4.47
2022-09-28T18:18:04.271Z,4.20
2022-09-28T18:20:31.390Z,6.07
2022-09-28T18:22:58.300Z,5.67
2022-09-28T18:25:25.253Z,4.10
2022-09-28T18:27:57.201Z,4.07
2022-09-28T18:30:25.112Z,4.03
2022-09-28T18:32:52.457Z,7.10
2022-09-28T18:35:23.005Z,6.37
2022-09-28T18:37:50.584Z,6.00
2022-09-28T18:40:18.017Z,6.63
2022-09-28T18:42:45.041Z,7.53
2022-09-28T18:45:12.104Z,8.87
2022-09-28T18:47:40.004Z,8.90
2022-09-28T18:50:07.599Z,9.07
2022-09-28T18:52:38.539Z,10.03
2022-09-28T18:55:07.630Z,9.30
2022-09-28T18:57:35.735Z,8.70
2022-09-28T19:00:05.919Z,6.67
2022-09-28T19:02:32.923Z,4.90
2022-09-28T19:05:00.016Z,4.07
2022-09-28T19:07:27.317Z,2.80
2022-09-28T19:09:54.462Z,3.10
2022-09-28T19:12:21.433Z,3.37
2022-09-28T19:14:48.373Z,3.67
2022-09-28T19:17:15.642Z,3.40
2022-09-28T19:19:42.794Z,3.53
2022-09-28T19:22:09.889Z,3.57
2022-09-28T19:24:36.808Z,3.30
2022-09-28T19:27:03.793Z,3.80
2022-09-28T19:29:30.757Z,6.50
2022-09-28T19:31:58.067Z,6.30
2022-09-28T19:34:27.101Z,4.17
2022-09-28T19:36:54.219Z,3.63
2022-09-28T19:39:21.125Z,9.30
2022-09-28T19:41:51.198Z,5.63
2022-09-28T19:44:26.376Z,5.20
2022-09-28T19:47:07.060Z,3.80
2022-09-28T19:49:37.206Z,4.37
2022-09-28T19:52:17.396Z,4.43
2022-09-28T19:54:45.372Z,4.27
2022-09-28T19:57:14.477Z,3.90
2022-09-28T19:59:41.725Z,3.47
2022-09-28T20:02:10.637Z,4.00
2022-09-28T20:04:37.664Z,3.43
2022-09-28T20:07:05.281Z,3.63
2022-09-28T20:09:33.149Z,3.70
2022-09-28T20:12:00.425Z,3.67
2022-09-28T20:14:32.021Z,4.43
2022-09-28T20:17:03.568Z,3.50
2022-09-28T20:19:30.467Z,3.80
2022-09-28T20:21:59.474Z,4.00
2022-09-28T20:24:28.759Z,2.77
2022-09-28T20:26:55.944Z,3.90
2022-09-28T20:29:24.296Z,3.30
2022-09-28T20:31:51.936Z,3.10
2022-09-28T20:34:19.417Z,3.33
2022-09-28T20:36:46.444Z,4.87
2022-09-28T20:39:13.462Z,4.07
2022-09-28T20:41:41.301Z,3.53
2022-09-28T20:44:09.102Z,3.27
2022-09-28T20:46:36.615Z,3.00
2022-09-28T20:49:04.871Z,3.70
2022-09-28T20:51:32.532Z,3.17
2022-09-28T20:54:00.024Z,2.90
2022-09-28T20:56:29.066Z,2.83
2022-09-28T20:58:56.942Z,3.57
2022-09-28T21:01:26.766Z,3.00
2022-09-28T21:04:01.650Z,2.60
2022-09-28T21:06:31.344Z,3.13
2022-09-28T21:08:58.839Z,3.50
2022-09-28T21:11:27.502Z,4.17
2022-09-28T21:13:59.876Z,3.80
2022-09-28T21:16:30.091Z,3.00
2022-09-28T21:18:57.655Z,3.33
2022-09-28T21:21:25.764Z,3.23
2022-09-28T21:23:53.863Z,3.13
2022-09-28T21:26:26.010Z,3.30
2022-09-28T21:28:58.462Z,3.10
2022-09-28T21:31:29.307Z,3.90
2022-09-28T21:34:00.046Z,3.63
2022-09-28T21:36:27.199Z,4.17
2022-09-28T21:38:56.124Z,3.80
2022-09-28T21:41:26.591Z,3.67
2022-09-28T21:43:53.740Z,3.80
2022-09-28T21:46:20.983Z,3.63
2022-09-28T21:48:52.519Z,3.83
2022-09-28T21:51:19.934Z,3.37
2022-09-28T21:53:48.509Z,3.10
2022-09-28T21:56:15.518Z,2.73
2022-09-28T21:58:42.413Z,2.80
2022-09-28T22:01:19.546Z,3.00
2022-09-28T22:03:55.915Z,3.07
2022-09-28T22:06:28.026Z,3.07
2022-09-28T22:08:55.392Z,3.70
2022-09-28T22:11:25.183Z,3.23
2022-09-28T22:13:57.691Z,3.10
2022-09-28T22:16:28.098Z,3.43
2022-09-28T22:18:55.449Z,3.10
2022-09-28T22:21:24.708Z,3.20
2022-09-28T22:23:52.923Z,3.20
2022-09-28T22:26:26.426Z,3.30
2022-09-28T22:28:59.283Z,3.30
2022-09-28T22:31:32.013Z,3.30
2022-09-28T22:33:59.540Z,3.33
2022-09-28T22:36:27.288Z,3.03
2022-09-28T22:38:56.059Z,3.23
2022-09-28T22:41:23.614Z,3.53
2022-09-28T22:43:53.098Z,3.90
2022-09-28T22:46:25.627Z,3.83
2022-09-28T22:48:57.999Z,3.87
2022-09-28T22:51:29.064Z,3.47
2022-09-28T22:53:56.746Z,3.53
2022-09-28T22:56:24.391Z,4.00
2022-09-28T22:58:51.394Z,3.60
2022-09-28T23:01:21.261Z,2.77
2022-09-28T23:03:49.610Z,2.90
2022-09-28T23:06:17.906Z,3.40
2022-09-28T23:08:46.374Z,3.03
2022-09-28T23:11:13.551Z,3.03
2022-09-28T23:13:40.515Z,4.17
2022-09-28T23:16:10.429Z,2.67
2022-09-28T23:18:40.787Z,2.80
2022-09-28T23:21:15.539Z,3.33
2022-09-28T23:23:43.868Z,3.33
2022-09-28T23:26:16.651Z,3.10
2022-09-28T23:28:44.655Z,3.20
2022-09-28T23:31:17.041Z,3.33
2022-09-28T23:33:44.083Z,3.63
2022-09-28T23:36:11.768Z,3.60
2022-09-28T23:38:39.535Z,3.67
2022-09-28T23:41:07.183Z,4.10
2022-09-28T23:43:34.894Z,3.67
2022-09-28T23:46:02.317Z,3.40
2022-09-28T23:48:29.419Z,3.33
2022-09-28T23:50:56.344Z,3.43
2022-09-28T23:53:23.289Z,4.23
2022-09-28T23:55:50.253Z,3.50
2022-09-28T23:58:17.262Z,3.80
